createdAt,value
2023-05-14T00:15:48.038Z,999.12
2023-05-14T03:51:45.636Z,998.47
2023-05-14T03:52:45.630Z,998.44
2023-05-14T03:53:45.592Z,998.44
2023-05-14T03:54:45.618Z,998.45
2023-05-14T03:55:45.579Z,998.43
2023-05-14T03:56:45.664Z,998.46
2023-05-14T03:57:45.556Z,998.43
2023-05-14T03:58:45.589Z,998.43
2023-05-14T03:59:45.699Z,998.43
2023-05-14T04:00:45.538Z,998.42
2023-05-14T04:01:45.531Z,998.42
2023-05-14T04:02:45.567Z,998.47
2023-05-14T04:03:45.715Z,998.50
2023-05-14T04:04:45.509Z,998.48
2023-05-14T04:05:45.502Z,998.44
2023-05-14T04:06:45.515Z,998.41
2023-05-14T04:07:45.460Z,998.45
2023-05-14T04:08:45.478Z,998.43
2023-05-14T04:09:45.506Z,998.44
2023-05-14T04:10:45.508Z,998.47
2023-05-14T04:11:45.401Z,998.49
2023-05-14T04:12:45.476Z,998.48
2023-05-14T04:13:45.417Z,998.50
2023-05-14T04:14:45.400Z,998.51
2023-05-14T04:15:45.378Z,998.52
2023-05-14T04:16:45.481Z,998.55
2023-05-14T04:17:45.370Z,998.57
2023-05-14T04:18:45.394Z,998.56
2023-05-14T04:19:45.344Z,998.56
2023-05-14T04:20:45.394Z,998.54
2023-05-14T04:21:45.305Z,998.56
2023-05-14T04:22:45.373Z,998.52
2023-05-14T04:23:45.375Z,998.52
2023-05-14T04:24:45.300Z,998.52
2023-05-14T04:25:45.315Z,998.52
2023-05-14T04:26:45.272Z,998.50
2023-05-14T04:27:45.261Z,998.49
2023-05-14T04:28:45.263Z,998.44
2023-05-14T04:29:45.264Z,998.41
2023-05-14T04:30:45.255Z,998.43
2023-05-14T04:31:45.291Z,998.44
2023-05-14T04:32:45.272Z,998.40
2023-05-14T04:33:45.208Z,998.41
2023-05-14T04:34:45.205Z,998.42
2023-05-14T04:35:45.149Z,998.36
2023-05-14T04:36:45.146Z,998.37
2023-05-14T04:37:45.237Z,998.39
2023-05-14T04:38:45.135Z,998.36
2023-05-14T04:39:45.125Z,998.38
2023-05-14T04:40:45.146Z,998.35
2023-05-14T04:41:45.121Z,998.35
2023-05-14T04:42:45.079Z,998.37
2023-05-14T04:43:45.068Z,998.37
2023-05-14T04:44:45.070Z,998.33
2023-05-14T04:45:45.157Z,998.33
2023-05-14T04:46:45.069Z,998.35
2023-05-14T04:47:45.116Z,998.30
2023-05-14T04:48:45.244Z,998.33
2023-05-14T04:49:45.066Z,998.30
2023-05-14T04:50:45.201Z,998.34
2023-05-14T04:51:45.110Z,998.34
2023-05-14T04:52:45.034Z,998.36
2023-05-14T04:53:45.018Z,998.36
2023-05-14T04:54:45.169Z,998.32
2023-05-14T04:55:44.969Z,998.35
2023-05-14T04:56:44.973Z,998.33
2023-05-14T04:57:44.929Z,998.36
2023-05-14T04:58:44.944Z,998.35
2023-05-14T04:59:44.912Z,998.34
2023-05-14T05:00:44.920Z,998.39
2023-05-14T05:01:45.256Z,998.37
2023-05-14T05:02:44.907Z,998.35
2023-05-14T05:03:45.014Z,998.33
2023-05-14T05:04:44.854Z,998.32
2023-05-14T05:05:45.046Z,998.33
2023-05-14T05:06:44.844Z,998.35
2023-05-14T05:07:44.901Z,998.37
2023-05-14T05:08:44.838Z,998.40
2023-05-14T05:09:44.878Z,998.37
2023-05-14T05:10:44.807Z,998.34
2023-05-14T05:11:44.777Z,998.37
2023-05-14T05:12:44.776Z,998.35
2023-05-14T05:13:44.770Z,998.35
2023-05-14T05:14:44.965Z,998.35
2023-05-14T05:15:44.767Z,998.37
2023-05-14T05:16:44.773Z,998.40
2023-05-14T05:17:44.766Z,998.37
2023-05-14T05:18:44.776Z,998.36
2023-05-14T05:19:44.822Z,998.39
2023-05-14T05:20:44.721Z,998.40
2023-05-14T05:21:44.741Z,998.44
2023-05-14T05:22:44.758Z,998.41
2023-05-14T05:23:44.698Z,998.44
2023-05-14T05:24:44.756Z,998.46
2023-05-14T05:25:44.633Z,998.45
2023-05-14T05:26:44.671Z,998.46
2023-05-14T05:27:44.638Z,998.49
2023-05-14T05:28:44.594Z,998.51
2023-05-14T05:29:44.666Z,998.46
2023-05-14T05:30:44.596Z,998.45
2023-05-14T05:31:44.722Z,998.50
2023-05-14T05:32:44.593Z,998.48
2023-05-14T05:33:44.774Z,998.51
2023-05-14T05:34:44.539Z,998.47
2023-05-14T05:35:44.612Z,998.46
2023-05-14T05:36:44.508Z,998.44
2023-05-14T05:37:44.508Z,998.46
2023-05-14T05:38:44.726Z,998.44
2023-05-14T05:39:44.481Z,998.47
2023-05-14T05:40:44.494Z,998.42
2023-05-14T05:41:44.462Z,998.46
2023-05-14T05:42:44.454Z,998.47
2023-05-14T05:43:44.463Z,998.41
2023-05-14T05:44:44.435Z,998.40
2023-05-14T05:45:44.427Z,998.45
2023-05-14T05:46:44.467Z,998.42
2023-05-14T05:47:44.434Z,998.46
2023-05-14T05:48:44.375Z,998.43
2023-05-14T05:49:44.397Z,998.44
2023-05-14T05:50:44.388Z,998.43
2023-05-14T05:51:44.372Z,998.45
2023-05-14T05:52:44.444Z,998.46
2023-05-14T05:53:44.365Z,998.41
2023-05-14T05:54:44.298Z,998.43
2023-05-14T05:55:44.299Z,998.44
2023-05-14T05:56:44.272Z,998.44
2023-05-14T05:57:44.293Z,998.48
2023-05-14T05:58:44.289Z,998.44
2023-05-14T05:59:44.256Z,998.47
2023-05-14T06:00:44.230Z,998.45
2023-05-14T06:01:44.307Z,998.46
2023-05-14T06:02:44.506Z,998.51
2023-05-14T06:03:45.800Z,998.44
2023-05-14T06:04:44.209Z,998.44
2023-05-14T06:05:44.316Z,998.45
2023-05-14T06:06:44.248Z,998.41
2023-05-14T06:07:44.230Z,998.49
2023-05-14T06:08:44.169Z,998.44
2023-05-14T06:09:44.145Z,998.43
2023-05-14T06:10:45.246Z,998.44
2023-05-14T06:11:44.149Z,998.44
2023-05-14T06:12:44.136Z,998.41
2023-05-14T06:13:44.123Z,998.39
2023-05-14T06:14:44.122Z,998.41
2023-05-14T06:15:44.115Z,998.40
2023-05-14T06:16:44.165Z,998.40
2023-05-14T06:17:44.140Z,998.37
2023-05-14T06:18:44.131Z,998.38
2023-05-14T06:19:44.268Z,998.37
2023-05-14T06:20:44.045Z,998.36
2023-05-14T06:21:44.032Z,998.31
2023-05-14T06:22:44.006Z,998.33
2023-05-14T06:23:44.116Z,998.37
2023-05-14T06:24:44.004Z,998.37
2023-05-14T06:25:44.020Z,998.31
2023-05-14T06:26:43.974Z,998.33
2023-05-14T06:27:43.974Z,998.32
2023-05-14T06:28:43.960Z,998.28
2023-05-14T06:29:44.163Z,998.30
2023-05-14T06:30:43.949Z,998.29
2023-05-14T06:31:44.005Z,998.32
2023-05-14T06:32:43.918Z,998.33
2023-05-14T06:33:43.911Z,998.28
2023-05-14T06:34:43.890Z,998.33
2023-05-14T06:35:43.912Z,998.31
2023-05-14T06:36:43.857Z,998.28
2023-05-14T06:37:43.861Z,998.33
2023-05-14T06:38:43.841Z,998.24
2023-05-14T06:39:43.862Z,998.27
2023-05-14T06:40:43.830Z,998.28
2023-05-14T06:41:43.823Z,998.28
2023-05-14T06:42:43.789Z,998.31
2023-05-14T06:43:43.820Z,998.30
2023-05-14T06:44:43.776Z,998.28
2023-05-14T06:45:43.787Z,998.30
2023-05-14T06:46:43.739Z,998.34
2023-05-14T06:47:43.801Z,998.28
2023-05-14T06:48:43.751Z,998.28
2023-05-14T06:49:43.762Z,998.27
2023-05-14T06:50:43.715Z,998.30
2023-05-14T06:51:43.707Z,998.26
2023-05-14T06:52:43.685Z,998.23
2023-05-14T06:53:43.693Z,998.19
2023-05-14T06:54:43.650Z,998.18
2023-05-14T06:55:43.716Z,998.19
2023-05-14T06:56:43.652Z,998.24
2023-05-14T06:57:43.655Z,998.25
2023-05-14T06:58:43.639Z,998.25
2023-05-14T06:59:43.626Z,998.28
2023-05-14T07:00:43.624Z,998.34
2023-05-14T07:01:43.621Z,998.28
2023-05-14T07:02:43.584Z,998.26
2023-05-14T07:03:43.596Z,998.26
2023-05-14T07:04:43.653Z,998.24
2023-05-14T07:05:43.556Z,998.28
2023-05-14T07:06:43.525Z,998.29
2023-05-14T07:07:43.543Z,998.29
2023-05-14T07:08:43.507Z,998.29
2023-05-14T07:09:43.502Z,998.27
2023-05-14T07:10:43.471Z,998.27
2023-05-14T07:11:43.511Z,998.23
2023-05-14T07:12:43.490Z,998.23
2023-05-14T07:13:43.493Z,998.22
2023-05-14T07:14:43.445Z,998.23
2023-05-14T07:15:43.469Z,998.26
2023-05-14T07:16:43.448Z,998.23
2023-05-14T07:17:43.421Z,998.20
2023-05-14T07:18:43.495Z,998.20
2023-05-14T07:19:43.389Z,998.24
2023-05-14T07:20:43.379Z,998.24
2023-05-14T07:21:43.364Z,998.25
2023-05-14T07:22:43.383Z,998.24
2023-05-14T07:23:43.348Z,998.22
2023-05-14T07:24:43.353Z,998.24
2023-05-14T07:25:43.328Z,998.18
2023-05-14T07:26:43.317Z,998.14
2023-05-14T07:27:43.352Z,998.15
2023-05-14T07:28:43.312Z,998.18
2023-05-14T07:29:43.319Z,998.13
2023-05-14T07:30:43.296Z,998.13
2023-05-14T07:31:43.280Z,998.15
2023-05-14T07:32:43.275Z,998.10
2023-05-14T07:33:43.257Z,998.13
2023-05-14T07:34:43.239Z,998.09
2023-05-14T07:35:43.227Z,998.13
2023-05-14T07:36:43.198Z,998.10
2023-05-14T07:37:43.230Z,998.06
2023-05-14T07:38:43.180Z,998.06
2023-05-14T07:39:43.234Z,998.07
2023-05-14T07:40:43.161Z,998.03
2023-05-14T07:41:43.196Z,998.03
2023-05-14T07:42:43.150Z,997.98
2023-05-14T07:43:43.234Z,998.05
2023-05-14T07:44:43.130Z,998.04
2023-05-14T07:45:43.127Z,998.02
2023-05-14T07:46:43.106Z,997.99
2023-05-14T07:47:43.196Z,998.00
2023-05-14T07:48:43.115Z,997.97
2023-05-14T07:49:43.096Z,997.97
2023-05-14T07:50:43.092Z,997.97
2023-05-14T07:51:43.046Z,997.94
2023-05-14T07:52:43.026Z,997.96
2023-05-14T07:53:43.025Z,997.90
2023-05-14T07:54:43.036Z,997.91
2023-05-14T07:55:43.019Z,997.92
2023-05-14T07:56:43.008Z,997.86
2023-05-14T07:57:42.972Z,997.84
2023-05-14T07:58:42.995Z,997.83
2023-05-14T07:59:43.013Z,997.83
2023-05-14T08:00:42.983Z,997.84
2023-05-14T08:01:43.044Z,997.84
2023-05-14T08:02:43.134Z,997.86
2023-05-14T08:03:43.045Z,997.85
2023-05-14T08:04:42.893Z,997.82
2023-05-14T08:05:42.953Z,997.88
2023-05-14T08:06:42.880Z,997.81
2023-05-14T08:07:42.877Z,997.82
2023-05-14T08:08:42.858Z,997.85
2023-05-14T08:09:42.844Z,997.81
2023-05-14T08:10:42.874Z,997.79
2023-05-14T08:11:42.851Z,997.80
2023-05-14T08:12:42.880Z,997.79
2023-05-14T08:13:42.837Z,997.78
2023-05-14T08:14:42.793Z,997.83
2023-05-14T08:15:42.859Z,997.79
2023-05-14T08:16:42.827Z,997.80
2023-05-14T08:17:42.902Z,997.79
2023-05-14T08:18:42.774Z,997.78
2023-05-14T08:19:42.738Z,997.81
2023-05-14T08:20:42.742Z,997.77
2023-05-14T08:21:42.748Z,997.81
2023-05-14T08:22:42.715Z,997.80
2023-05-14T08:23:42.750Z,997.76
2023-05-14T08:24:42.706Z,997.79
2023-05-14T08:25:42.698Z,997.80
2023-05-14T08:26:42.691Z,997.82
2023-05-14T08:27:42.727Z,997.76
2023-05-14T08:28:42.667Z,997.77
2023-05-14T08:29:42.672Z,997.80
2023-05-14T08:30:42.668Z,997.81
2023-05-14T08:31:42.644Z,997.76
2023-05-14T08:32:42.642Z,997.77
2023-05-14T08:33:42.625Z,997.78
2023-05-14T08:34:44.083Z,997.72
2023-05-14T08:35:42.588Z,997.69
2023-05-14T08:36:42.583Z,997.77
2023-05-14T08:37:42.601Z,997.69
2023-05-14T08:38:42.766Z,997.78
2023-05-14T08:39:42.537Z,997.69
2023-05-14T08:40:42.544Z,997.71
2023-05-14T08:41:42.536Z,997.69
2023-05-14T08:42:42.518Z,997.69
2023-05-14T08:43:42.502Z,997.70
2023-05-14T08:44:42.672Z,997.71
2023-05-14T08:45:42.473Z,997.71
2023-05-14T08:46:42.473Z,997.74
2023-05-14T08:47:42.514Z,997.69
2023-05-14T08:48:42.485Z,997.73
2023-05-14T08:49:42.437Z,997.74
2023-05-14T08:50:42.427Z,997.69
2023-05-14T08:51:42.426Z,997.68
2023-05-14T08:52:42.415Z,997.65
2023-05-14T08:53:42.427Z,997.66
2023-05-14T08:54:42.366Z,997.69
2023-05-14T08:55:42.389Z,997.74
2023-05-14T08:56:42.344Z,997.69
2023-05-14T08:57:42.366Z,997.69
2023-05-14T08:58:42.332Z,997.68
2023-05-14T08:59:42.328Z,997.66
2023-05-14T09:00:42.303Z,997.61
2023-05-14T09:01:42.388Z,997.66
2023-05-14T09:02:42.340Z,997.64
2023-05-14T09:03:42.354Z,997.59
2023-05-14T09:04:42.296Z,997.64
2023-05-14T09:05:42.288Z,997.57
2023-05-14T09:06:42.265Z,997.60
2023-05-14T09:07:42.278Z,997.56
2023-05-14T09:08:42.255Z,997.55
2023-05-14T09:09:42.234Z,997.50
2023-05-14T09:10:42.203Z,997.52
2023-05-14T09:11:42.226Z,997.57
2023-05-14T09:12:42.208Z,997.58
2023-05-14T09:13:42.207Z,997.52
2023-05-14T09:14:42.161Z,997.50
2023-05-14T09:15:42.382Z,997.47
2023-05-14T09:16:42.222Z,997.43
2023-05-14T09:17:42.211Z,997.41
2023-05-14T09:18:42.179Z,997.43
2023-05-14T09:19:42.129Z,997.43
2023-05-14T09:20:42.109Z,997.41
2023-05-14T09:21:42.094Z,997.42
2023-05-14T09:22:42.080Z,997.44
2023-05-14T09:23:42.062Z,997.45
2023-05-14T09:24:42.071Z,997.46
2023-05-14T09:25:42.040Z,997.43
2023-05-14T09:26:42.033Z,997.45
2023-05-14T09:27:42.032Z,997.42
2023-05-14T09:28:42.000Z,997.37
2023-05-14T09:29:42.047Z,997.37
2023-05-14T09:30:42.033Z,997.35
2023-05-14T09:31:42.040Z,997.34
2023-05-14T09:32:41.994Z,997.34
2023-05-14T09:33:42.176Z,997.33
2023-05-14T09:34:41.954Z,997.35
2023-05-14T09:35:41.979Z,997.35
2023-05-14T09:36:41.947Z,997.34
2023-05-14T09:37:41.944Z,997.34
2023-05-14T09:38:41.899Z,997.30
2023-05-14T09:39:41.889Z,997.33
2023-05-14T09:40:41.890Z,997.30
2023-05-14T09:41:41.906Z,997.34
2023-05-14T09:42:41.871Z,997.29
2023-05-14T09:43:41.849Z,997.34
2023-05-14T09:44:41.840Z,997.33
2023-05-14T09:45:41.841Z,997.37
2023-05-14T09:46:42.049Z,997.37
2023-05-14T09:47:41.856Z,997.37
2023-05-14T09:48:41.876Z,997.37
2023-05-14T09:49:41.795Z,997.36
2023-05-14T09:50:41.802Z,997.35
2023-05-14T09:51:41.800Z,997.33
2023-05-14T09:52:41.774Z,997.32
2023-05-14T09:53:41.751Z,997.33
2023-05-14T09:54:41.793Z,997.35
2023-05-14T09:55:41.755Z,997.32
2023-05-14T09:56:41.716Z,997.30
2023-05-14T09:57:41.717Z,997.25
2023-05-14T09:58:41.737Z,997.32
2023-05-14T09:59:41.713Z,997.25
2023-05-14T10:00:41.703Z,997.33
2023-05-14T10:01:41.743Z,997.28
2023-05-14T10:02:41.755Z,997.28
2023-05-14T10:03:41.661Z,997.27
2023-05-14T10:04:41.662Z,997.22
2023-05-14T10:05:41.625Z,997.26
2023-05-14T10:06:41.628Z,997.24
2023-05-14T10:07:41.640Z,997.24
2023-05-14T10:08:41.627Z,997.19
2023-05-14T10:09:41.610Z,997.21
2023-05-14T10:10:41.596Z,997.21
2023-05-14T10:11:41.577Z,997.27
2023-05-14T10:12:41.565Z,997.19
2023-05-14T10:13:41.553Z,997.16
2023-05-14T10:14:41.564Z,997.19
2023-05-14T10:15:41.521Z,997.18
2023-05-14T10:16:41.540Z,997.22
2023-05-14T10:17:41.576Z,997.16
2023-05-14T10:18:41.722Z,997.19
2023-05-14T10:19:41.481Z,997.17
2023-05-14T10:20:41.537Z,997.17
2023-05-14T10:21:41.451Z,997.12
2023-05-14T10:22:41.471Z,997.15
2023-05-14T10:23:41.455Z,997.16
2023-05-14T10:24:41.437Z,997.18
2023-05-14T10:25:41.447Z,997.17
2023-05-14T10:26:41.421Z,997.14
2023-05-14T10:27:41.420Z,997.15
2023-05-14T10:28:41.386Z,997.19
2023-05-14T10:29:41.372Z,997.10
2023-05-14T10:30:41.360Z,997.13
2023-05-14T10:31:41.397Z,997.13
2023-05-14T10:32:41.468Z,997.10
2023-05-14T10:33:41.326Z,997.09
2023-05-14T10:34:41.386Z,997.06
2023-05-14T10:35:41.346Z,997.03
2023-05-14T10:36:41.326Z,997.05
2023-05-14T10:37:41.279Z,997.04
2023-05-14T10:38:41.305Z,996.97
2023-05-14T10:39:41.521Z,997.00
2023-05-14T10:40:41.278Z,996.96
2023-05-14T10:41:41.255Z,996.95
2023-05-14T10:42:41.271Z,996.92
2023-05-14T10:43:41.213Z,996.93
2023-05-14T10:44:41.213Z,996.97
2023-05-14T10:45:41.194Z,996.98
2023-05-14T10:46:41.259Z,996.98
2023-05-14T10:47:41.201Z,997.00
2023-05-14T10:48:41.213Z,996.99
2023-05-14T10:49:43.922Z,996.99
2023-05-14T10:50:41.168Z,996.92
2023-05-14T10:51:41.249Z,996.95
2023-05-14T10:52:41.131Z,996.89
2023-05-14T10:53:41.135Z,996.89
2023-05-14T10:54:41.113Z,996.90
2023-05-14T10:55:41.114Z,996.87
2023-05-14T10:56:41.098Z,996.88
2023-05-14T10:57:41.094Z,996.86
2023-05-14T10:58:41.069Z,996.84
2023-05-14T10:59:41.053Z,996.84
2023-05-14T11:00:41.067Z,996.80
2023-05-14T11:01:41.082Z,996.79
2023-05-14T11:02:41.057Z,996.88
2023-05-14T11:03:41.096Z,996.85
2023-05-14T11:04:41.021Z,996.80
2023-05-14T11:05:40.984Z,996.84
2023-05-14T11:06:41.001Z,996.82
2023-05-14T11:07:40.973Z,996.81
2023-05-14T11:08:41.013Z,996.83
2023-05-14T11:09:40.973Z,996.72
2023-05-14T11:10:40.972Z,996.73
2023-05-14T11:11:40.979Z,996.64
2023-05-14T11:12:40.922Z,996.70
2023-05-14T11:13:40.921Z,996.62
2023-05-14T11:14:40.931Z,996.61
2023-05-14T11:15:40.884Z,996.56
2023-05-14T11:16:40.938Z,996.56
2023-05-14T11:17:40.975Z,996.62
2023-05-14T11:18:41.111Z,996.51
2023-05-14T11:19:40.866Z,996.60
2023-05-14T11:20:40.873Z,996.61
2023-05-14T11:21:40.869Z,996.53
2023-05-14T11:22:40.851Z,996.57
2023-05-14T11:23:40.863Z,996.47
2023-05-14T11:24:40.808Z,996.49
2023-05-14T11:25:40.813Z,996.41
2023-05-14T11:26:40.851Z,996.48
2023-05-14T11:27:40.793Z,996.51
2023-05-14T11:28:40.764Z,996.48
2023-05-14T11:29:40.737Z,996.44
2023-05-14T11:30:40.740Z,996.55
2023-05-14T11:31:40.750Z,996.53
2023-05-14T11:32:40.778Z,996.42
2023-05-14T11:33:40.735Z,996.47
2023-05-14T11:34:40.696Z,996.44
2023-05-14T11:35:40.712Z,996.41
2023-05-14T11:36:40.729Z,996.45
2023-05-14T11:37:40.675Z,996.36
2023-05-14T11:38:40.660Z,996.35
2023-05-14T11:39:40.653Z,996.39
2023-05-14T11:40:40.652Z,996.30
2023-05-14T11:41:40.831Z,996.35
2023-05-14T11:42:40.615Z,996.38
2023-05-14T11:43:40.615Z,996.34
2023-05-14T11:44:40.613Z,996.29
2023-05-14T11:45:40.642Z,996.31
2023-05-14T11:46:40.683Z,996.23
2023-05-14T11:47:40.599Z,996.15
2023-05-14T11:48:40.571Z,996.26
2023-05-14T11:49:40.564Z,996.27
2023-05-14T11:50:40.563Z,996.14
2023-05-14T11:51:40.544Z,996.11
2023-05-14T11:52:40.540Z,996.09
2023-05-14T11:53:40.525Z,996.10
2023-05-14T11:54:40.720Z,996.09
2023-05-14T11:55:40.500Z,996.07
2023-05-14T11:56:40.498Z,996.07
2023-05-14T11:57:40.492Z,996.05
2023-05-14T11:58:40.461Z,996.09
2023-05-14T11:59:40.709Z,996.13
2023-05-14T12:00:40.464Z,996.10
2023-05-14T12:01:40.413Z,996.09
2023-05-14T12:02:40.545Z,996.07
2023-05-14T12:03:40.571Z,996.06
2023-05-14T12:04:40.469Z,996.04
2023-05-14T12:05:40.417Z,996.09
2023-05-14T12:06:40.410Z,996.10
2023-05-14T12:07:40.348Z,996.02
2023-05-14T12:08:40.364Z,996.02
2023-05-14T12:09:40.655Z,996.02
2023-05-14T12:10:40.357Z,996.06
2023-05-14T12:11:40.335Z,995.96
2023-05-14T12:12:40.289Z,995.97
2023-05-14T12:13:40.288Z,995.99
2023-05-14T12:14:40.300Z,995.97
2023-05-14T12:15:40.323Z,996.07
2023-05-14T12:16:40.292Z,996.01
2023-05-14T12:17:40.312Z,996.11
2023-05-14T12:18:40.337Z,996.06
2023-05-14T12:19:40.218Z,996.06
2023-05-14T12:20:40.256Z,996.09
2023-05-14T12:21:40.237Z,996.14
2023-05-14T12:22:40.209Z,996.04
2023-05-14T12:23:40.178Z,996.11
2023-05-14T12:24:40.231Z,996.01
2023-05-14T12:25:40.164Z,996.07
2023-05-14T12:26:40.164Z,995.99
2023-05-14T12:27:40.172Z,996.04
2023-05-14T12:28:40.143Z,995.96
2023-05-14T12:29:40.132Z,995.99
2023-05-14T12:30:40.137Z,995.98
2023-05-14T12:31:40.186Z,995.94
2023-05-14T12:32:40.226Z,995.96
2023-05-14T12:33:40.077Z,995.88
2023-05-14T12:34:40.098Z,995.86
2023-05-14T12:35:40.065Z,995.91
2023-05-14T12:36:40.095Z,995.70
2023-05-14T12:37:40.165Z,995.76
2023-05-14T12:38:40.078Z,995.58
2023-05-14T12:39:40.034Z,995.79
2023-05-14T12:40:40.028Z,995.81
2023-05-14T12:41:40.024Z,995.58
2023-05-14T12:42:40.039Z,995.79
2023-05-14T12:43:40.011Z,995.72
2023-05-14T12:44:40.011Z,995.65
2023-05-14T12:45:40.000Z,995.54
2023-05-14T12:46:40.041Z,995.70
2023-05-14T12:47:40.031Z,995.46
2023-05-14T12:48:39.989Z,995.40
2023-05-14T12:49:39.934Z,995.48
2023-05-14T12:50:39.935Z,995.48
2023-05-14T12:51:39.924Z,995.34
2023-05-14T12:52:40.253Z,995.34
2023-05-14T12:53:39.894Z,995.38
2023-05-14T12:54:41.635Z,995.44
2023-05-14T12:55:39.862Z,995.45
2023-05-14T12:56:39.906Z,995.41
2023-05-14T12:57:39.891Z,995.49
2023-05-14T12:58:39.852Z,995.45
2023-05-14T12:59:39.861Z,995.30
2023-05-14T13:00:40.095Z,995.27
2023-05-14T13:01:39.946Z,995.27
2023-05-14T13:02:42.852Z,995.26
2023-05-14T13:03:39.814Z,995.22
2023-05-14T13:04:39.890Z,995.19
2023-05-14T13:05:39.780Z,995.28
2023-05-14T13:06:39.790Z,995.25
2023-05-14T13:07:39.740Z,995.24
2023-05-14T13:08:41.483Z,995.20
2023-05-14T13:09:39.757Z,995.18
2023-05-14T13:10:39.756Z,995.22
2023-05-14T13:11:39.699Z,995.30
2023-05-14T13:12:39.724Z,995.28
2023-05-14T13:13:39.719Z,995.27
2023-05-14T13:14:39.707Z,995.23
2023-05-14T13:15:39.893Z,995.22
2023-05-14T13:16:39.750Z,995.10
2023-05-14T13:17:39.691Z,995.19
2023-05-14T13:18:39.691Z,995.15
2023-05-14T13:19:39.677Z,995.21
2023-05-14T13:20:41.225Z,995.25
2023-05-14T13:21:39.614Z,995.25
2023-05-14T13:22:39.666Z,995.28
2023-05-14T13:23:39.597Z,995.28
2023-05-14T13:24:39.612Z,995.31
2023-05-14T13:25:39.607Z,995.42
2023-05-14T13:26:39.614Z,995.35
2023-05-14T13:27:39.589Z,995.23
2023-05-14T13:28:39.748Z,995.29
2023-05-14T13:29:39.520Z,995.21
2023-05-14T13:30:39.561Z,995.27
2023-05-14T13:31:39.537Z,995.20
2023-05-14T13:32:42.101Z,995.20
2023-05-14T13:33:39.498Z,995.18
2023-05-14T13:34:39.482Z,995.22
2023-05-14T13:35:39.469Z,995.29
2023-05-14T13:36:39.511Z,995.37
2023-05-14T13:37:39.462Z,995.30
2023-05-14T13:38:39.480Z,995.27
2023-05-14T13:39:41.089Z,995.19
2023-05-14T13:40:39.434Z,995.16
2023-05-14T13:41:39.427Z,995.17
2023-05-14T13:42:39.430Z,995.16
2023-05-14T13:43:39.386Z,995.13
2023-05-14T13:44:39.393Z,995.18
2023-05-14T13:45:39.429Z,995.17
2023-05-14T13:46:39.416Z,995.13
2023-05-14T13:47:40.285Z,995.14
2023-05-14T13:48:39.375Z,995.15
2023-05-14T13:49:39.316Z,995.08
2023-05-14T13:50:39.357Z,995.09
2023-05-14T13:51:39.372Z,995.04
2023-05-14T13:52:39.301Z,995.06
2023-05-14T13:53:39.323Z,995.01
2023-05-14T13:54:39.344Z,995.04
2023-05-14T13:55:39.261Z,995.22
2023-05-14T13:56:39.258Z,995.23
2023-05-14T13:57:39.239Z,995.27
2023-05-14T13:58:39.246Z,995.20
2023-05-14T13:59:39.220Z,994.96
2023-05-14T14:00:39.251Z,994.96
2023-05-14T14:01:39.252Z,994.97
2023-05-14T14:02:39.261Z,994.97
2023-05-14T14:03:39.214Z,995.09
2023-05-14T14:04:39.189Z,994.89
2023-05-14T14:05:39.631Z,994.97
2023-05-14T14:06:39.172Z,994.98
2023-05-14T14:07:39.232Z,994.88
2023-05-14T14:08:39.180Z,994.82
2023-05-14T14:09:39.162Z,995.15
2023-05-14T14:10:39.139Z,994.95
2023-05-14T14:11:39.134Z,995.10
2023-05-14T14:12:39.106Z,995.11
2023-05-14T14:13:39.091Z,995.11
2023-05-14T14:14:39.080Z,995.07
2023-05-14T14:15:39.087Z,995.08
2023-05-14T14:16:39.132Z,995.09
2023-05-14T14:17:39.148Z,995.00
2023-05-14T14:18:39.093Z,995.04
2023-05-14T14:19:39.074Z,995.02
2023-05-14T14:20:39.247Z,995.03
2023-05-14T14:21:39.030Z,994.98
2023-05-14T14:22:39.041Z,994.99
2023-05-14T14:23:39.086Z,994.97
2023-05-14T14:24:38.991Z,994.94
2023-05-14T14:25:39.008Z,994.91
2023-05-14T14:26:39.008Z,994.95
2023-05-14T14:27:38.976Z,994.97
2023-05-14T14:28:38.970Z,994.94
2023-05-14T14:29:38.942Z,994.93
2023-05-14T14:30:38.952Z,994.89
2023-05-14T14:31:39.043Z,994.85
2023-05-14T14:32:38.968Z,994.88
2023-05-14T14:33:38.921Z,994.53
2023-05-14T14:34:38.877Z,994.83
2023-05-14T14:35:38.894Z,994.55
2023-05-14T14:36:38.914Z,994.63
2023-05-14T14:37:38.872Z,994.56
2023-05-14T14:38:38.851Z,994.56
2023-05-14T14:39:38.893Z,994.53
2023-05-14T14:40:38.850Z,994.70
2023-05-14T14:41:38.858Z,994.53
2023-05-14T14:42:38.823Z,994.54
2023-05-14T14:43:38.852Z,994.51
2023-05-14T14:44:38.848Z,994.48
2023-05-14T14:45:38.838Z,994.46
2023-05-14T14:46:38.804Z,994.44
2023-05-14T14:47:38.783Z,994.56
2023-05-14T14:48:38.765Z,994.62
2023-05-14T14:49:38.760Z,994.37
2023-05-14T14:50:38.761Z,994.39
2023-05-14T14:51:38.725Z,994.47
2023-05-14T14:52:38.720Z,994.48
2023-05-14T14:53:38.704Z,994.44
2023-05-14T14:54:38.779Z,994.36
2023-05-14T14:55:38.743Z,994.30
2023-05-14T14:56:38.704Z,994.31
2023-05-14T14:57:38.693Z,994.30
2023-05-14T14:58:38.676Z,994.22
2023-05-14T14:59:38.676Z,994.24
2023-05-14T15:00:38.635Z,994.25
2023-05-14T15:01:38.675Z,994.32
2023-05-14T15:02:38.693Z,994.29
2023-05-14T15:03:38.771Z,994.28
2023-05-14T15:04:38.625Z,994.30
2023-05-14T15:05:38.619Z,994.34
2023-05-14T15:06:38.594Z,994.29
2023-05-14T15:07:38.615Z,994.34
2023-05-14T15:08:38.689Z,994.34
2023-05-14T15:09:38.569Z,994.33
2023-05-14T15:10:38.611Z,994.34
2023-05-14T15:11:38.553Z,994.38
2023-05-14T15:12:38.546Z,994.28
2023-05-14T15:13:38.521Z,994.32
2023-05-14T15:14:38.500Z,994.35
2023-05-14T15:15:38.564Z,994.43
2023-05-14T15:16:38.552Z,994.42
2023-05-14T15:17:38.786Z,994.51
2023-05-14T15:18:38.474Z,994.51
2023-05-14T15:19:38.473Z,994.50
2023-05-14T15:20:38.449Z,994.55
2023-05-14T15:21:38.468Z,994.59
2023-05-14T15:22:38.456Z,994.57
2023-05-14T15:23:38.412Z,994.56
2023-05-14T15:24:38.415Z,994.57
2023-05-14T15:25:38.403Z,994.57
2023-05-14T15:26:38.395Z,994.54
2023-05-14T15:27:38.434Z,994.55
2023-05-14T15:28:38.359Z,994.57
2023-05-14T15:29:38.367Z,994.54
2023-05-14T15:30:38.349Z,994.52
2023-05-14T15:31:38.358Z,994.53
2023-05-14T15:32:38.368Z,994.55
2023-05-14T15:33:38.330Z,994.48
2023-05-14T15:34:38.291Z,994.52
2023-05-14T15:35:38.358Z,994.50
2023-05-14T15:36:38.316Z,994.49
2023-05-14T15:37:38.310Z,994.47
2023-05-14T15:38:38.258Z,994.50
2023-05-14T15:39:38.261Z,994.46
2023-05-14T15:40:38.248Z,994.44
2023-05-14T15:41:38.244Z,994.45
2023-05-14T15:42:38.232Z,994.44
2023-05-14T15:43:38.262Z,994.45
2023-05-14T15:44:39.102Z,994.43
2023-05-14T15:45:38.203Z,994.39
2023-05-14T15:46:38.219Z,994.36
2023-05-14T15:47:38.279Z,994.31
2023-05-14T15:48:38.188Z,994.31
2023-05-14T15:49:38.158Z,994.34
2023-05-14T15:50:38.164Z,994.34
2023-05-14T15:51:38.158Z,994.32
2023-05-14T15:52:38.128Z,994.23
2023-05-14T15:53:38.129Z,994.28
2023-05-14T15:54:38.113Z,994.21
2023-05-14T15:55:38.119Z,994.19
2023-05-14T15:56:38.098Z,994.13
2023-05-14T15:57:38.099Z,994.22
2023-05-14T15:58:38.087Z,994.16
2023-05-14T15:59:38.118Z,994.15
2023-05-14T16:00:38.260Z,994.11
2023-05-14T16:01:38.104Z,994.13
2023-05-14T16:02:38.068Z,994.14
2023-05-14T16:03:38.106Z,994.14
2023-05-14T16:04:38.069Z,994.07
2023-05-14T16:05:38.025Z,994.14
2023-05-14T16:06:38.013Z,994.19
2023-05-14T16:07:37.999Z,994.18
2023-05-14T16:08:38.192Z,994.21
2023-05-14T16:09:38.051Z,994.19
2023-05-14T16:10:37.950Z,994.21
2023-05-14T16:11:37.982Z,994.16
2023-05-14T16:12:38.003Z,994.15
2023-05-14T16:13:37.956Z,994.15
2023-05-14T16:14:38.602Z,994.09
2023-05-14T16:15:37.957Z,994.12
2023-05-14T16:16:38.206Z,994.11
2023-05-14T16:17:37.917Z,994.08
2023-05-14T16:18:37.925Z,994.12